sensor_id;sensor_type;location;lat;lon;timestamp;pressure;altitude;pressure_sealevel;temperature;humidity
18850;BME280;4989;48.772;9.154;2023-01-31T00:03:16;98886.72;;;4.02;100.00
18850;BME280;4989;48.772;9.154;2023-01-31T00:08:18;98886.47;;;3.88;100.00
18850;BME280;4989;48.772;9.154;2023-01-31T00:13:21;98885.16;;;3.62;100.00
18850;BME280;4989;48.772;9.154;2023-01-31T00:18:24;98884.72;;;3.41;100.00
18850;BME280;4989;48.772;9.154;2023-01-31T00:23:27;98874.66;;;3.38;100.00
18850;BME280;4989;48.772;9.154;2023-01-31T00:28:29;98890.44;;;3.24;100.00
18850;BME280;4989;48.772;9.154;2023-01-31T00:33:33;98872.19;;;3.13;100.00
18850;BME280;4989;48.772;9.154;2023-01-31T00:38:36;98886.25;;;3.07;100.00
18850;BME280;4989;48.772;9.154;2023-01-31T00:43:40;98866.94;;;3.01;100.00
18850;BME280;4989;48.772;9.154;2023-01-31T00:48:44;98872.22;;;2.97;100.00
18850;BME280;4989;48.772;9.154;2023-01-31T00:53:47;98861.41;;;2.94;100.00
18850;BME280;4989;48.772;9.154;2023-01-31T00:58:50;98859.06;;;2.92;100.00
18850;BME280;4989;48.772;9.154;2023-01-31T01:03:55;98861.22;;;2.87;100.00
18850;BME280;4989;48.772;9.154;2023-01-31T01:08:58;98865.81;;;2.86;100.00
18850;BME280;4989;48.772;9.154;2023-01-31T01:14:04;98865.06;;;2.86;100.00
18850;BME280;4989;48.772;9.154;2023-01-31T01:19:12;98859.69;;;2.86;100.00
18850;BME280;4989;48.772;9.154;2023-01-31T01:24:18;98853.03;;;2.80;100.00
18850;BME280;4989;48.772;9.154;2023-01-31T01:29:21;98857.00;;;2.86;100.00
18850;BME280;4989;48.772;9.154;2023-01-31T01:34:24;98861.50;;;2.82;100.00
18850;BME280;4989;48.772;9.154;2023-01-31T01:39:26;98863.41;;;2.81;100.00
18850;BME280;4989;48.772;9.154;2023-01-31T01:49:43;98875.53;;;2.75;100.00
18850;BME280;4989;48.772;9.154;2023-01-31T01:54:55;98877.88;;;2.77;100.00
18850;BME280;4989;48.772;9.154;2023-01-31T02:00:14;98870.25;;;2.79;100.00
18850;BME280;4989;48.772;9.154;2023-01-31T02:05:29;98886.38;;;2.79;100.00
18850;BME280;4989;48.772;9.154;2023-01-31T02:15:54;98880.13;;;2.74;100.00
18850;BME280;4989;48.772;9.154;2023-01-31T02:53:24;98923.66;;;3.31;100.00
18850;BME280;4989;48.772;9.154;2023-01-31T02:58:35;98926.13;;;3.40;100.00
18850;BME280;4989;48.772;9.154;2023-01-31T03:03:40;98928.47;;;3.41;100.00
18850;BME280;4989;48.772;9.154;2023-01-31T03:08:44;98921.47;;;3.37;100.00
18850;BME280;4989;48.772;9.154;2023-01-31T03:14:00;98924.88;;;3.53;100.00
18850;BME280;4989;48.772;9.154;2023-01-31T03:19:31;98920.53;;;3.64;100.00
18850;BME280;4989;48.772;9.154;2023-01-31T03:24:32;98923.34;;;3.52;100.00
18850;BME280;4989;48.772;9.154;2023-01-31T03:29:37;98937.06;;;3.31;100.00
18850;BME280;4989;48.772;9.154;2023-01-31T03:34:43;98929.63;;;3.25;100.00
18850;BME280;4989;48.772;9.154;2023-01-31T03:45:24;98944.13;;;3.55;100.00
18850;BME280;4989;48.772;9.154;2023-01-31T03:50:42;98945.69;;;3.56;100.00
18850;BME280;4989;48.772;9.154;2023-01-31T03:55:54;98935.00;;;3.60;100.00
18850;BME280;4989;48.772;9.154;2023-01-31T04:01:01;98945.75;;;3.25;100.00
18850;BME280;4989;48.772;9.154;2023-01-31T04:06:08;98957.94;;;2.90;100.00
18850;BME280;4989;48.772;9.154;2023-01-31T04:11:13;98957.69;;;2.80;100.00
18850;BME280;4989;48.772;9.154;2023-01-31T04:16:16;98961.69;;;2.86;100.00
18850;BME280;4989;48.772;9.154;2023-01-31T04:21:18;98967.91;;;2.90;100.00
18850;BME280;4989;48.772;9.154;2023-01-31T04:26:21;98965.16;;;3.02;100.00
18850;BME280;4989;48.772;9.154;2023-01-31T04:31:24;98953.63;;;3.17;100.00
18850;BME280;4989;48.772;9.154;2023-01-31T04:36:27;98958.47;;;3.28;100.00
18850;BME280;4989;48.772;9.154;2023-01-31T04:41:29;98960.22;;;3.20;100.00
18850;BME280;4989;48.772;9.154;2023-01-31T04:46:33;98966.34;;;3.20;100.00
18850;BME280;4989;48.772;9.154;2023-01-31T04:51:36;98972.78;;;3.32;100.00
18850;BME280;4989;48.772;9.154;2023-01-31T04:56:38;98971.00;;;3.55;100.00
18850;BME280;4989;48.772;9.154;2023-01-31T05:01:41;98959.78;;;3.34;100.00
18850;BME280;4989;48.772;9.154;2023-01-31T05:06:43;98948.34;;;3.37;100.00
18850;BME280;4989;48.772;9.154;2023-01-31T05:11:46;98964.13;;;3.22;100.00
18850;BME280;4989;48.772;9.154;2023-01-31T05:16:48;98952.22;;;3.24;100.00
18850;BME280;4989;48.772;9.154;2023-01-31T05:21:51;98966.88;;;3.10;100.00
18850;BME280;4989;48.772;9.154;2023-01-31T05:26:58;98958.06;;;2.94;100.00
18850;BME280;4989;48.772;9.154;2023-01-31T05:32:01;98976.03;;;2.78;100.00
18850;BME280;4989;48.772;9.154;2023-01-31T05:37:05;98984.78;;;2.74;100.00
18850;BME280;4989;48.772;9.154;2023-01-31T05:42:08;98982.41;;;2.57;100.00
18850;BME280;4989;48.772;9.154;2023-01-31T05:47:11;98976.84;;;2.50;100.00
18850;BME280;4989;48.772;9.154;2023-01-31T05:52:13;98966.41;;;2.33;100.00
18850;BME280;4989;48.772;9.154;2023-01-31T05:57:16;98972.28;;;2.22;100.00
18850;BME280;4989;48.772;9.154;2023-01-31T06:02:19;98965.59;;;2.16;100.00
18850;BME280;4989;48.772;9.154;2023-01-31T06:07:21;98968.31;;;2.04;100.00
18850;BME280;4989;48.772;9.154;2023-01-31T06:12:25;98977.72;;;1.98;100.00
18850;BME280;4989;48.772;9.154;2023-01-31T06:17:27;98977.91;;;2.05;100.00
18850;BME280;4989;48.772;9.154;2023-01-31T06:22:31;98976.03;;;1.93;100.00
18850;BME280;4989;48.772;9.154;2023-01-31T06:27:35;98975.06;;;1.86;100.00
18850;BME280;4989;48.772;9.154;2023-01-31T06:32:38;98984.88;;;1.81;100.00
18850;BME280;4989;48.772;9.154;2023-01-31T06:37:40;98984.34;;;1.76;100.00
18850;BME280;4989;48.772;9.154;2023-01-31T06:42:42;98996.06;;;1.71;100.00
18850;BME280;4989;48.772;9.154;2023-01-31T06:47:45;99011.91;;;1.89;100.00
18850;BME280;4989;48.772;9.154;2023-01-31T06:52:47;99004.97;;;2.00;100.00
18850;BME280;4989;48.772;9.154;2023-01-31T06:57:50;99000.50;;;2.04;100.00
18850;BME280;4989;48.772;9.154;2023-01-31T07:02:53;98996.69;;;2.05;100.00
18850;BME280;4989;48.772;9.154;2023-01-31T07:07:57;98986.06;;;2.09;100.00
18850;BME280;4989;48.772;9.154;2023-01-31T07:13:00;98986.19;;;2.12;100.00
18850;BME280;4989;48.772;9.154;2023-01-31T07:18:03;98996.44;;;2.10;100.00
18850;BME280;4989;48.772;9.154;2023-01-31T07:23:07;98984.59;;;2.11;100.00
18850;BME280;4989;48.772;9.154;2023-01-31T07:28:11;98984.19;;;2.09;100.00
18850;BME280;4989;48.772;9.154;2023-01-31T07:33:14;98989.53;;;2.09;100.00
18850;BME280;4989;48.772;9.154;2023-01-31T07:38:16;98994.28;;;2.28;100.00
18850;BME280;4989;48.772;9.154;2023-01-31T07:43:19;98997.91;;;2.36;100.00
18850;BME280;4989;48.772;9.154;2023-01-31T07:48:22;98999.00;;;2.47;100.00
18850;BME280;4989;48.772;9.154;2023-01-31T07:53:27;99006.06;;;2.67;100.00
18850;BME280;4989;48.772;9.154;2023-01-31T07:58:29;98993.72;;;2.79;100.00
18850;BME280;4989;48.772;9.154;2023-01-31T08:03:32;99008.63;;;2.92;100.00
18850;BME280;4989;48.772;9.154;2023-01-31T08:08:36;99006.56;;;3.01;100.00
18850;BME280;4989;48.772;9.154;2023-01-31T08:13:39;99011.25;;;3.04;100.00
18850;BME280;4989;48.772;9.154;2023-01-31T08:18:41;99007.78;;;3.19;100.00
18850;BME280;4989;48.772;9.154;2023-01-31T08:23:45;99005.59;;;3.41;100.00
18850;BME280;4989;48.772;9.154;2023-01-31T08:28:49;99001.72;;;3.54;100.00
18850;BME280;4989;48.772;9.154;2023-01-31T08:33:53;99012.25;;;3.79;100.00
18850;BME280;4989;48.772;9.154;2023-01-31T08:38:56;99000.59;;;3.90;100.00
18850;BME280;4989;48.772;9.154;2023-01-31T08:43:58;98999.19;;;4.16;100.00
18850;BME280;4989;48.772;9.154;2023-01-31T08:49:05;98996.75;;;4.27;100.00
18850;BME280;4989;48.772;9.154;2023-01-31T08:54:08;98995.59;;;4.28;100.00
18850;BME280;4989;48.772;9.154;2023-01-31T08:59:12;98980.66;;;4.50;100.00
18850;BME280;4989;48.772;9.154;2023-01-31T09:04:14;98981.75;;;4.68;100.00
18850;BME280;4989;48.772;9.154;2023-01-31T09:09:17;98991.03;;;4.90;100.00
18850;BME280;4989;48.772;9.154;2023-01-31T09:14:19;98989.63;;;5.23;100.00
18850;BME280;4989;48.772;9.154;2023-01-31T09:19:22;98995.16;;;5.57;97.81
18850;BME280;4989;48.772;9.154;2023-01-31T09:24:24;98989.22;;;5.47;97.39
18850;BME280;4989;48.772;9.154;2023-01-31T09:29:27;98993.91;;;5.50;97.52
18850;BME280;4989;48.772;9.154;2023-01-31T09:34:31;98991.78;;;5.14;97.84
18850;BME280;4989;48.772;9.154;2023-01-31T09:39:34;98975.72;;;5.70;96.45
18850;BME280;4989;48.772;9.154;2023-01-31T09:44:40;98978.31;;;6.20;94.31
18850;BME280;4989;48.772;9.154;2023-01-31T09:49:51;98987.31;;;6.31;92.23
18850;BME280;4989;48.772;9.154;2023-01-31T09:54:54;98986.38;;;5.37;95.84
18850;BME280;4989;48.772;9.154;2023-01-31T10:05:32;98997.28;;;5.70;95.42
18850;BME280;4989;48.772;9.154;2023-01-31T10:10:44;99001.44;;;5.64;95.77
18850;BME280;4989;48.772;9.154;2023-01-31T10:21:37;99002.31;;;5.45;95.60
18850;BME280;4989;48.772;9.154;2023-01-31T10:26:44;98995.41;;;5.74;92.58
18850;BME280;4989;48.772;9.154;2023-01-31T10:31:55;98992.25;;;5.42;93.61
18850;BME280;4989;48.772;9.154;2023-01-31T10:42:26;98973.75;;;6.24;90.17
18850;BME280;4989;48.772;9.154;2023-01-31T10:47:58;98979.72;;;6.40;88.60
18850;BME280;4989;48.772;9.154;2023-01-31T10:58:21;98976.53;;;6.01;90.38
18850;BME280;4989;48.772;9.154;2023-01-31T11:03:24;98974.13;;;6.26;90.52
18850;BME280;4989;48.772;9.154;2023-01-31T11:08:42;98973.63;;;6.84;87.55
18850;BME280;4989;48.772;9.154;2023-01-31T11:14:04;98960.28;;;7.02;84.51
18850;BME280;4989;48.772;9.154;2023-01-31T11:24:38;98939.63;;;6.42;88.47
18850;BME280;4989;48.772;9.154;2023-01-31T11:29:48;98940.16;;;6.22;90.04
18850;BME280;4989;48.772;9.154;2023-01-31T11:35:04;98915.09;;;6.58;88.75
18850;BME280;4989;48.772;9.154;2023-01-31T11:45:33;98883.03;;;7.01;85.45
18850;BME280;4989;48.772;9.154;2023-01-31T11:50:50;98879.50;;;7.52;84.95
18850;BME280;4989;48.772;9.154;2023-01-31T11:55:56;98882.75;;;7.79;80.64
18850;BME280;4989;48.772;9.154;2023-01-31T12:01:13;98899.06;;;7.24;81.96
18850;BME280;4989;48.772;9.154;2023-01-31T12:06:34;98905.72;;;7.41;82.11
18850;BME280;4989;48.772;9.154;2023-01-31T12:11:37;98889.78;;;7.25;83.71
18850;BME280;4989;48.772;9.154;2023-01-31T12:16:39;98867.19;;;7.62;81.91
18850;BME280;4989;48.772;9.154;2023-01-31T12:26:49;98866.81;;;6.98;80.36
18850;BME280;4989;48.772;9.154;2023-01-31T12:42:47;98815.63;;;8.46;71.78
18850;BME280;4989;48.772;9.154;2023-01-31T12:48:14;98811.56;;;7.68;75.90
18850;BME280;4989;48.772;9.154;2023-01-31T12:53:32;98815.53;;;7.08;79.26
18850;BME280;4989;48.772;9.154;2023-01-31T13:09:43;98803.94;;;6.53;82.71
18850;BME280;4989;48.772;9.154;2023-01-31T13:31:07;98804.44;;;6.21;85.36
18850;BME280;4989;48.772;9.154;2023-01-31T13:36:35;98782.31;;;5.71;88.69
18850;BME280;4989;48.772;9.154;2023-01-31T13:41:40;98779.97;;;5.66;88.81
18850;BME280;4989;48.772;9.154;2023-01-31T13:47:07;98786.25;;;5.43;88.92
18850;BME280;4989;48.772;9.154;2023-01-31T13:57:49;98782.31;;;5.37;89.54
18850;BME280;4989;48.772;9.154;2023-01-31T14:03:11;98786.47;;;5.31;90.49
18850;BME280;4989;48.772;9.154;2023-01-31T14:14:19;98781.09;;;5.65;89.92
18850;BME280;4989;48.772;9.154;2023-01-31T14:29:57;98751.28;;;5.50;89.72
18850;BME280;4989;48.772;9.154;2023-01-31T14:46:36;98734.88;;;6.00;87.85
18850;BME280;4989;48.772;9.154;2023-01-31T14:52:11;98734.13;;;6.03;88.42
18850;BME280;4989;48.772;9.154;2023-01-31T15:07:57;98723.81;;;5.75;90.91
18850;BME280;4989;48.772;9.154;2023-01-31T15:13:00;98728.13;;;6.24;89.16
18850;BME280;4989;48.772;9.154;2023-01-31T15:18:12;98758.94;;;6.19;89.06
18850;BME280;4989;48.772;9.154;2023-01-31T15:23:19;98773.88;;;6.10;88.95
18850;BME280;4989;48.772;9.154;2023-01-31T15:28:29;98755.03;;;6.17;88.92
18850;BME280;4989;48.772;9.154;2023-01-31T15:33:42;98758.84;;;6.09;88.80
18850;BME280;4989;48.772;9.154;2023-01-31T15:38:53;98769.81;;;6.30;88.51
18850;BME280;4989;48.772;9.154;2023-01-31T15:44:11;98761.44;;;6.42;86.84
18850;BME280;4989;48.772;9.154;2023-01-31T15:49:32;98757.47;;;6.29;88.22
18850;BME280;4989;48.772;9.154;2023-01-31T15:59:57;98749.53;;;6.03;91.15
18850;BME280;4989;48.772;9.154;2023-01-31T16:05:01;98771.31;;;6.24;90.76
18850;BME280;4989;48.772;9.154;2023-01-31T16:10:06;98757.00;;;6.20;91.61
18850;BME280;4989;48.772;9.154;2023-01-31T16:15:22;98771.47;;;5.97;92.82
18850;BME280;4989;48.772;9.154;2023-01-31T16:20:54;98767.03;;;6.19;92.01
18850;BME280;4989;48.772;9.154;2023-01-31T16:31:14;98776.75;;;6.28;91.27
18850;BME280;4989;48.772;9.154;2023-01-31T16:36:50;98777.56;;;6.35;90.31
18850;BME280;4989;48.772;9.154;2023-01-31T16:41:54;98781.22;;;6.13;90.97
18850;BME280;4989;48.772;9.154;2023-01-31T16:46:59;98787.84;;;6.19;91.82
18850;BME280;4989;48.772;9.154;2023-01-31T16:52:26;98785.00;;;6.05;91.77
18850;BME280;4989;48.772;9.154;2023-01-31T17:02:40;98794.31;;;5.77;95.43
18850;BME280;4989;48.772;9.154;2023-01-31T17:07:44;98781.75;;;5.88;95.30
18850;BME280;4989;48.772;9.154;2023-01-31T17:12:48;98790.13;;;5.80;93.93
18850;BME280;4989;48.772;9.154;2023-01-31T17:17:51;98795.84;;;5.74;94.50
18850;BME280;4989;48.772;9.154;2023-01-31T17:22:53;98796.69;;;6.16;93.46
18850;BME280;4989;48.772;9.154;2023-01-31T17:28:05;98795.41;;;6.03;92.26
18850;BME280;4989;48.772;9.154;2023-01-31T17:33:13;98784.84;;;5.90;93.26
18850;BME280;4989;48.772;9.154;2023-01-31T17:38:17;98791.00;;;5.87;93.26
18850;BME280;4989;48.772;9.154;2023-01-31T17:43:21;98774.66;;;5.73;94.61
18850;BME280;4989;48.772;9.154;2023-01-31T17:48:24;98762.22;;;5.65;94.42
18850;BME280;4989;48.772;9.154;2023-01-31T17:53:28;98774.00;;;5.49;96.40
18850;BME280;4989;48.772;9.154;2023-01-31T17:58:38;98761.91;;;5.36;98.00
18850;BME280;4989;48.772;9.154;2023-01-31T18:03:41;98753.66;;;5.56;97.54
18850;BME280;4989;48.772;9.154;2023-01-31T18:08:44;98770.03;;;5.10;99.59
18850;BME280;4989;48.772;9.154;2023-01-31T18:13:47;98744.31;;;5.16;99.58
18850;BME280;4989;48.772;9.154;2023-01-31T18:18:49;98734.50;;;5.00;100.00
18850;BME280;4989;48.772;9.154;2023-01-31T18:23:55;98738.41;;;5.03;100.00
18850;BME280;4989;48.772;9.154;2023-01-31T18:28:58;98733.78;;;5.03;100.00
18850;BME280;4989;48.772;9.154;2023-01-31T18:34:01;98731.41;;;4.98;100.00
18850;BME280;4989;48.772;9.154;2023-01-31T18:39:04;98735.97;;;4.94;100.00
18850;BME280;4989;48.772;9.154;2023-01-31T18:44:07;98750.03;;;5.11;100.00
18850;BME280;4989;48.772;9.154;2023-01-31T18:49:09;98736.22;;;5.12;100.00
18850;BME280;4989;48.772;9.154;2023-01-31T18:54:12;98737.66;;;5.06;100.00
18850;BME280;4989;48.772;9.154;2023-01-31T18:59:14;98750.91;;;5.18;100.00
18850;BME280;4989;48.772;9.154;2023-01-31T19:04:17;98756.53;;;5.36;100.00
18850;BME280;4989;48.772;9.154;2023-01-31T19:09:20;98759.44;;;5.24;100.00
18850;BME280;4989;48.772;9.154;2023-01-31T19:14:23;98737.63;;;5.02;100.00
18850;BME280;4989;48.772;9.154;2023-01-31T19:19:26;98735.69;;;5.33;100.00
18850;BME280;4989;48.772;9.154;2023-01-31T19:24:29;98746.78;;;5.28;100.00
18850;BME280;4989;48.772;9.154;2023-01-31T19:29:31;98746.03;;;5.65;100.00
18850;BME280;4989;48.772;9.154;2023-01-31T19:34:34;98745.59;;;5.59;100.00
18850;BME280;4989;48.772;9.154;2023-01-31T19:39:37;98764.91;;;5.31;100.00
18850;BME280;4989;48.772;9.154;2023-01-31T19:44:40;98753.91;;;5.13;100.00
18850;BME280;4989;48.772;9.154;2023-01-31T19:49:42;98745.38;;;5.08;100.00
18850;BME280;4989;48.772;9.154;2023-01-31T19:54:45;98757.66;;;5.05;100.00
18850;BME280;4989;48.772;9.154;2023-01-31T19:59:47;98725.63;;;4.96;100.00
18850;BME280;4989;48.772;9.154;2023-01-31T20:04:50;98711.22;;;5.15;100.00
18850;BME280;4989;48.772;9.154;2023-01-31T20:09:54;98711.63;;;5.17;100.00
18850;BME280;4989;48.772;9.154;2023-01-31T20:14:56;98709.78;;;4.91;100.00
18850;BME280;4989;48.772;9.154;2023-01-31T20:19:59;98711.47;;;5.03;100.00
18850;BME280;4989;48.772;9.154;2023-01-31T20:25:03;98722.28;;;5.07;100.00
18850;BME280;4989;48.772;9.154;2023-01-31T20:30:07;98730.91;;;5.19;100.00
18850;BME280;4989;48.772;9.154;2023-01-31T20:35:09;98737.13;;;5.23;100.00
18850;BME280;4989;48.772;9.154;2023-01-31T20:40:12;98736.84;;;5.69;100.00
18850;BME280;4989;48.772;9.154;2023-01-31T20:45:14;98753.22;;;5.87;100.00
18850;BME280;4989;48.772;9.154;2023-01-31T20:50:17;98750.06;;;5.78;100.00
18850;BME280;4989;48.772;9.154;2023-01-31T20:55:20;98747.94;;;5.61;100.00
18850;BME280;4989;48.772;9.154;2023-01-31T21:00:23;98749.66;;;5.42;100.00
18850;BME280;4989;48.772;9.154;2023-01-31T21:05:25;98744.03;;;5.21;100.00
18850;BME280;4989;48.772;9.154;2023-01-31T21:10:28;98722.09;;;4.92;100.00
18850;BME280;4989;48.772;9.154;2023-01-31T21:15:32;98707.09;;;4.91;100.00
18850;BME280;4989;48.772;9.154;2023-01-31T21:20:34;98698.88;;;4.84;100.00
18850;BME280;4989;48.772;9.154;2023-01-31T21:25:37;98684.06;;;4.67;100.00
18850;BME280;4989;48.772;9.154;2023-01-31T21:30:40;98676.16;;;4.51;100.00
18850;BME280;4989;48.772;9.154;2023-01-31T21:35:43;98674.50;;;4.43;100.00
18850;BME280;4989;48.772;9.154;2023-01-31T21:40:46;98695.41;;;4.27;100.00
18850;BME280;4989;48.772;9.154;2023-01-31T21:45:48;98696.53;;;4.26;100.00
18850;BME280;4989;48.772;9.154;2023-01-31T21:50:51;98694.69;;;4.30;100.00
18850;BME280;4989;48.772;9.154;2023-01-31T21:56:10;98697.47;;;4.37;100.00
18850;BME280;4989;48.772;9.154;2023-01-31T22:01:14;98714.44;;;4.41;100.00
18850;BME280;4989;48.772;9.154;2023-01-31T22:06:27;98707.09;;;4.38;100.00
18850;BME280;4989;48.772;9.154;2023-01-31T22:11:32;98726.19;;;4.56;100.00
18850;BME280;4989;48.772;9.154;2023-01-31T22:16:37;98739.31;;;4.57;100.00
18850;BME280;4989;48.772;9.154;2023-01-31T22:21:40;98757.19;;;4.69;100.00
18850;BME280;4989;48.772;9.154;2023-01-31T22:26:44;98751.00;;;4.69;100.00
18850;BME280;4989;48.772;9.154;2023-01-31T22:31:47;98755.66;;;4.72;100.00
18850;BME280;4989;48.772;9.154;2023-01-31T22:36:49;98764.16;;;4.74;100.00
18850;BME280;4989;48.772;9.154;2023-01-31T22:41:52;98756.44;;;4.72;100.00
18850;BME280;4989;48.772;9.154;2023-01-31T22:46:54;98758.56;;;4.59;100.00
18850;BME280;4989;48.772;9.154;2023-01-31T22:51:57;98760.19;;;4.41;100.00
18850;BME280;4989;48.772;9.154;2023-01-31T22:56:59;98753.75;;;4.46;100.00
18850;BME280;4989;48.772;9.154;2023-01-31T23:02:02;98741.97;;;4.31;100.00
18850;BME280;4989;48.772;9.154;2023-01-31T23:07:04;98734.34;;;4.33;100.00
18850;BME280;4989;48.772;9.154;2023-01-31T23:12:07;98725.34;;;4.48;100.00
18850;BME280;4989;48.772;9.154;2023-01-31T23:17:10;98710.31;;;4.21;100.00
18850;BME280;4989;48.772;9.154;2023-01-31T23:22:31;98707.50;;;4.13;100.00
18850;BME280;4989;48.772;9.154;2023-01-31T23:27:34;98693.50;;;4.04;100.00
18850;BME280;4989;48.772;9.154;2023-01-31T23:32:38;98692.94;;;3.92;100.00
18850;BME280;4989;48.772;9.154;2023-01-31T23:37:44;98705.13;;;3.85;100.00
18850;BME280;4989;48.772;9.154;2023-01-31T23:42:46;98691.25;;;3.83;100.00
18850;BME280;4989;48.772;9.154;2023-01-31T23:47:49;98685.81;;;3.80;100.00
18850;BME280;4989;48.772;9.154;2023-01-31T23:52:52;98675.78;;;3.77;100.00
18850;BME280;4989;48.772;9.154;2023-01-31T23:57:54;98679.63;;;3.76;100.00
